LIPH/TSF METAR and TAF weather

Enter ICAO airport designator
Station Type Date Time Source
LIPH METAR 2019/02/20 17:20 UTC NOAA

LIPH 201720Z 22002KT 3000 BR NSC 08/05 Q1025


Station Type Date Time Source
LIPH Decoded METAR 2019/02/20 17:20 UTC NOAA

Treviso / S. Angelo, Italy (LIPH) 45-39N 012-11E 23M
Feb 20, 2019 - 12:20 PM EST / 2019.02.20 1720 UTC
Wind: from the SW (220 degrees) at 2 MPH (2 KT):0
Visibility: 1 mile(s):0
Weather: mist
Temperature: 46 F (8 C)
Dew Point: 41 F (5 C)
Relative Humidity: 81%
Pressure (altimeter): 30.27 in. Hg (1025 hPa)
ob: LIPH 201720Z 22002KT 3000 BR NSC 08/05 Q1025
cycle: 17

Station Type Date Time Source
LIPH TAF 2019/02/20 18:21 UTC NOAA

TAF LIPH 201700Z 2018/2118 VRB05KT 2000 BR BKN010
BECMG 2100/2102 0200 FG BKN004
BECMG 2110/2112 6000 SCT015


Example: see airport list